Time;durP1;ratioP1;P1;durP2;ratioP2;P2;SDS_P1;SDS_P2;PMS_P1;PMS_P2;Temp;Humidity;BMP_temperature;BMP_pressure;BME280_temperature;BME280_humidity;BME280_pressure;Samples;Min_cycle;Max_cycle;Signal;HPM_P1;HPM_P2
2022/10/23 00:01:52;;;;;;;19.43;9.17;;;;;;;8.90;nan;-24065.66;5093667;28;20200;-73
2022/10/23 00:04:22;;;;;;;13.10;7.43;;;;;;;8.93;nan;-24066.34;5093769;28;20248;-76
2022/10/23 00:06:48;;;;;;;18.17;9.03;;;;;;;8.85;nan;-24064.38;5093648;28;20181;-74
2022/10/23 00:09:16;;;;;;;20.13;9.53;;;;;;;8.61;nan;-24057.44;5091957;28;20177;-74
2022/10/23 00:11:46;;;;;;;15.20;7.73;;;;;;;8.85;nan;-24064.38;5092423;28;20215;-75
2022/10/23 00:14:13;;;;;;;16.60;8.73;;;;;;;7.47;nan;-24025.72;5074753;28;20185;-73
2022/10/23 00:16:38;;;;;;;16.50;8.37;;;;;;;8.80;nan;-24062.81;5092571;28;20225;-73
2022/10/23 00:19:06;;;;;;;17.40;8.03;;;;;;;8.78;nan;-24062.25;5093557;28;20173;-74
2022/10/23 00:21:31;;;;;;;14.80;7.80;;;;;;;8.39;nan;-24051.34;5074553;28;20173;-74
2022/10/23 00:23:57;;;;;;;26.10;7.27;;;;;;;8.74;nan;-24061.25;5092411;28;20305;-76
2022/10/23 00:26:22;;;;;;;18.00;8.67;;;;;;;7.23;nan;-24018.75;5093124;28;20185;-76
2022/10/23 00:28:50;;;;;;;15.87;8.20;;;;;;;8.31;nan;-24049.22;5092742;28;20177;-77
2022/10/23 00:31:16;;;;;;;17.73;7.70;;;;;;;8.58;nan;-24056.72;5092850;28;20177;-75
2022/10/23 00:33:42;;;;;;;18.37;7.93;;;;;;;8.61;nan;-24057.44;5074499;28;20193;-72
2022/10/23 00:36:09;;;;;;;15.37;8.67;;;;;;;8.85;nan;-24064.38;5074248;28;20180;-76
2022/10/23 00:38:36;;;;;;;15.07;7.93;;;;;;;8.78;nan;-24062.25;5092198;28;20195;-74
2022/10/23 00:41:01;;;;;;;20.37;8.30;;;;;;;8.82;nan;-24063.38;5091839;28;20625;-73
2022/10/23 00:43:33;;;;;;;20.80;8.83;;;;;;;8.48;nan;-24053.75;5092422;28;20268;-73
2022/10/23 00:45:58;;;;;;;16.33;8.23;;;;;;;8.95;nan;-24066.91;5093145;28;20256;-73
2022/10/23 00:48:25;;;;;;;16.77;7.90;;;;;;;8.95;nan;-24066.91;5093068;28;20204;-76
2022/10/23 00:50:51;;;;;;;23.47;9.97;;;;;;;8.92;nan;-24066.22;5074371;28;20200;-76
2022/10/23 00:53:18;;;;;;;18.00;7.80;;;;;;;8.75;nan;-24061.53;5092636;28;20621;-74
2022/10/23 00:55:46;;;;;;;14.23;7.80;;;;;;;8.51;nan;-24054.75;5075036;28;20178;-75
2022/10/23 00:58:12;;;;;;;14.67;7.90;;;;;;;8.85;nan;-24064.22;5092546;28;20197;-74
2022/10/23 01:00:53;;;;;;;17.63;8.43;;;;;;;8.87;nan;-24064.78;5074317;28;20175;-74
2022/10/23 01:03:22;;;;;;;14.70;8.30;;;;;;;8.72;nan;-24060.69;5092478;28;20169;-73
2022/10/23 01:06:01;;;;;;;18.63;7.37;;;;;;;8.81;nan;-24063.25;5092087;28;20645;-73
2022/10/23 01:08:29;;;;;;;15.00;8.10;;;;;;;8.81;nan;-24063.25;5092453;28;20605;-75
2022/10/23 01:11:06;;;;;;;16.03;7.83;;;;;;;7.42;nan;-24024.16;5092420;28;20169;-77
2022/10/23 01:13:55;;;;;;;17.10;7.80;;;;;;;8.90;nan;-24065.50;5092495;28;20168;-74
2022/10/23 01:16:38;;;;;;;22.60;8.20;;;;;;;8.77;nan;-24062.09;5092475;28;20177;-75
2022/10/23 01:19:12;;;;;;;22.43;8.30;;;;;;;8.70;nan;-24060.13;5073917;28;20189;-73
2022/10/23 01:21:55;;;;;;;15.47;8.40;;;;;;;8.76;nan;-24061.81;5091824;28;20192;-74
2022/10/23 01:24:37;;;;;;;11.70;6.63;;;;;;;8.71;nan;-24060.41;5092452;28;20228;-77
2022/10/23 01:27:03;;;;;;;20.03;8.60;;;;;;;8.63;nan;-24058.00;5092266;28;20177;-73
2022/10/23 01:29:40;;;;;;;22.23;7.87;;;;;;;8.37;nan;-24050.94;5073856;28;20200;-74
2022/10/23 01:32:15;;;;;;;13.03;7.17;;;;;;;8.62;nan;-24057.72;5092345;28;20256;-74
2022/10/23 01:34:46;;;;;;;12.00;7.43;;;;;;;8.67;nan;-24059.28;5092409;28;20218;-75
2022/10/23 01:37:18;;;;;;;19.90;8.33;;;;;;;8.67;nan;-24059.28;5091977;28;20308;-74
2022/10/23 01:39:51;;;;;;;16.03;7.63;;;;;;;8.55;nan;-24055.88;5091768;28;20294;-74
2022/10/23 01:42:20;;;;;;;14.10;7.90;;;;;;;8.55;nan;-24055.88;5091790;28;20178;-75
2022/10/23 01:45:03;;;;;;;18.60;8.20;;;;;;;8.57;nan;-24056.44;5073503;28;20183;-74
2022/10/23 01:47:32;;;;;;;13.77;7.43;;;;;;;8.27;nan;-24047.94;5091504;28;20694;-74
2022/10/23 01:49:59;;;;;;;14.50;7.67;;;;;;;8.68;nan;-24059.56;5091801;28;20230;-75
2022/10/23 01:52:25;;;;;;;18.13;8.47;;;;;;;8.57;nan;-24056.44;5091897;28;20177;-73
2022/10/23 01:54:55;;;;;;;16.10;8.30;;;;;;;8.31;nan;-24049.22;5073610;28;20665;-76
2022/10/23 01:57:24;;;;;;;16.23;7.83;;;;;;;8.56;nan;-24056.16;5092056;28;20733;-76
2022/10/23 01:59:54;;;;;;;15.93;7.60;;;;;;;8.34;nan;-24049.94;5092533;28;20184;-75
2022/10/23 02:02:22;;;;;;;17.67;8.33;;;;;;;8.37;nan;-24050.78;5092041;28;20240;-74
2022/10/23 02:04:57;;;;;;;15.70;7.80;;;;;;;8.22;nan;-24046.53;5091838;28;20663;-74
2022/10/23 02:07:23;;;;;;;16.57;7.13;;;;;;;8.36;nan;-24050.50;5091917;28;20185;-76
2022/10/23 02:09:48;;;;;;;13.60;7.20;;;;;;;8.53;nan;-24055.16;5091596;28;20252;-75
2022/10/23 02:12:39;;;;;;;15.63;8.00;;;;;;;8.53;nan;-24055.16;5091352;28;20169;-74
2022/10/23 02:15:13;;;;;;;17.73;8.17;;;;;;;8.71;nan;-24060.25;5073993;28;20203;-75
2022/10/23 02:17:59;;;;;;;22.77;8.83;;;;;;;8.77;nan;-24062.09;5092970;28;20196;-75
2022/10/23 02:20:34;;;;;;;21.43;7.13;;;;;;;8.68;nan;-24059.41;5095278;28;20711;-73
2022/10/23 02:23:19;;;;;;;13.97;6.97;;;;;;;8.15;nan;-24044.69;5076902;28;20255;-77
2022/10/23 02:26:00;;;;;;;14.37;6.77;;;;;;;8.78;nan;-24062.25;5077312;28;20559;-74
2022/10/23 02:28:33;;;;;;;17.83;7.37;;;;;;;8.78;nan;-24062.25;5095551;28;20594;-74
2022/10/23 02:31:01;;;;;;;10.07;6.20;;;;;;;8.94;nan;-24066.63;5095861;28;20710;-76
2022/10/23 02:33:29;;;;;;;11.10;6.93;;;;;;;8.67;nan;-24059.28;5095898;28;20174;-76
2022/10/23 02:35:54;;;;;;;13.67;7.07;;;;;;;8.76;nan;-24061.69;5095233;28;20613;-73
2022/10/23 02:38:33;;;;;;;14.53;6.83;;;;;;;8.69;nan;-24059.84;5074653;28;20232;-73
2022/10/23 02:41:28;;;;;;;14.43;6.73;;;;;;;8.56;nan;-24056.16;5104340;28;20231;-74
2022/10/23 02:44:20;;;;;;;16.23;6.43;;;;;;;9.02;nan;-24069.03;5079093;28;20247;-71
2022/10/23 02:47:25;;;;;;;9.97;5.93;;;;;;;9.21;nan;-24074.25;5103334;28;20188;-75
2022/10/23 02:50:29;;;;;;;11.77;6.73;;;;;;;8.76;nan;-24061.69;5093132;28;20181;-73
2022/10/23 02:53:09;;;;;;;11.67;6.37;;;;;;;8.87;nan;-24064.78;5079166;28;20174;-75
2022/10/23 02:56:02;;;;;;;12.97;7.00;;;;;;;9.21;nan;-24074.25;5100491;28;20268;-77
2022/10/23 02:58:55;;;;;;;12.37;7.47;;;;;;;9.25;nan;-24075.41;5092654;28;20280;-75
2022/10/23 03:01:26;;;;;;;13.90;6.53;;;;;;;9.18;nan;-24073.41;5091113;28;20213;-74
2022/10/23 03:03:55;;;;;;;14.87;7.67;;;;;;;9.38;nan;-24079.06;5092866;28;20224;-76
2022/10/23 03:06:22;;;;;;;15.63;7.03;;;;;;;8.92;nan;-24066.06;5081964;28;20185;-74
2022/10/23 03:08:52;;;;;;;15.13;7.17;;;;;;;8.91;nan;-24065.94;5094237;28;20192;-76
2022/10/23 03:11:18;;;;;;;14.10;7.40;;;;;;;8.63;nan;-24058.16;5094808;28;20678;-72
2022/10/23 03:13:43;;;;;;;9.07;5.87;;;;;;;8.76;nan;-24061.69;5094659;28;20162;-75
2022/10/23 03:16:09;;;;;;;11.73;6.97;;;;;;;8.88;nan;-24065.22;5084719;28;20199;-74
2022/10/23 03:18:34;;;;;;;13.40;6.97;;;;;;;8.88;nan;-24065.22;5082321;28;20210;-76
2022/10/23 03:21:00;;;;;;;11.40;6.93;;;;;;;9.06;nan;-24070.16;5102314;28;20481;-73
2022/10/23 03:23:25;;;;;;;13.43;7.20;;;;;;;8.85;nan;-24064.38;5093715;28;20700;-72
2022/10/23 03:25:52;;;;;;;12.87;6.70;;;;;;;9.20;nan;-24074.00;5097264;28;20203;-79
2022/10/23 03:28:17;;;;;;;10.27;5.70;;;;;;;9.27;nan;-24075.97;5074103;28;20633;-78
2022/10/23 03:30:43;;;;;;;12.33;6.13;;;;;;;9.54;nan;-24083.59;5078596;28;20194;-73
2022/10/23 03:33:08;;;;;;;10.83;5.83;;;;;;;9.44;nan;-24080.78;5101385;28;20181;-74
2022/10/23 03:35:34;;;;;;;12.17;6.97;;;;;;;;;;5093791;28;20166;-75
2022/10/23 03:37:59;;;;;;;16.13;5.97;;;;;;;;;;5073112;28;20205;-74
2022/10/23 03:40:24;;;;;;;9.93;5.50;;;;;;;10.14;nan;-24100.25;5091028;28;20197;-75
2022/10/23 03:42:50;;;;;;;9.13;5.33;;;;;;;10.14;nan;-24100.41;5096058;28;20300;-73
2022/10/23 03:45:15;;;;;;;12.27;6.33;;;;;;;10.33;nan;-24105.63;5089550;28;20590;-75
2022/10/23 03:47:41;;;;;;;10.40;6.00;;;;;;;9.92;nan;-24094.06;5101009;28;20521;-75
2022/10/23 03:50:07;;;;;;;11.00;5.27;;;;;;;10.06;nan;-24098.00;5091199;28;20551;-75
2022/10/23 03:52:33;;;;;;;10.17;6.10;;;;;;;10.16;nan;-24100.84;5099237;28;20181;-75
2022/10/23 03:54:58;;;;;;;12.47;6.13;;;;;;;10.16;nan;-24100.84;5093710;28;20196;-72
2022/10/23 03:57:24;;;;;;;9.50;5.70;;;;;;;10.51;nan;-24110.72;5082155;28;20216;-74
2022/10/23 03:59:49;;;;;;;11.82;6.20;;;;;;;10.64;nan;-24114.25;5090966;28;20339;-75
2022/10/23 04:02:15;;;;;;;13.63;6.10;;;;;;;10.18;nan;-24101.41;5097650;28;20174;-73
2022/10/23 04:04:40;;;;;;;10.00;5.60;;;;;;;10.28;nan;-24104.06;5091830;28;20195;-72
2022/10/23 04:07:05;;;;;;;8.40;5.53;;;;;;;10.59;nan;-24112.97;5083491;28;20250;-74
2022/10/23 04:09:31;;;;;;;8.73;5.70;;;;;;;10.59;nan;-24112.97;5081955;28;20232;-76
2022/10/23 04:11:56;;;;;;;13.00;6.37;;;;;;;10.47;nan;-24109.59;5090044;28;20533;-74
2022/10/23 04:14:22;;;;;;;10.93;5.22;;;;;;;10.36;nan;-24106.47;5086361;28;20186;-74
2022/10/23 04:16:47;;;;;;;9.10;5.00;;;;;;;10.71;nan;-24116.06;5091572;28;20181;-74
2022/10/23 04:19:12;;;;;;;10.67;5.07;;;;;;;10.67;nan;-24114.94;5088001;28;20184;-75
2022/10/23 04:21:38;;;;;;;10.40;5.57;;;;;;;10.32;nan;-24105.22;5090648;28;20192;-77
2022/10/23 04:24:04;;;;;;;12.87;5.63;;;;;;;10.64;nan;-24114.25;5082820;28;20673;-73
2022/10/23 04:26:29;;;;;;;10.43;5.30;;;;;;;10.68;nan;-24115.22;5081769;28;20219;-76
2022/10/23 04:28:55;;;;;;;13.20;5.67;;;;;;;10.64;nan;-24114.38;5093857;28;20183;-75
2022/10/23 04:31:20;;;;;;;13.27;6.03;;;;;;;10.74;nan;-24116.91;5088839;28;20263;-73
2022/10/23 04:33:45;;;;;;;7.17;4.47;;;;;;;10.80;nan;-24118.63;5093807;28;20539;-73
2022/10/23 04:36:11;;;;;;;11.77;6.40;;;;;;;10.51;nan;-24110.72;5091496;28;20658;-76
2022/10/23 04:38:36;;;;;;;10.83;4.80;;;;;;;10.80;nan;-24118.75;5090257;28;20267;-74
2022/10/23 04:41:02;;;;;;;10.53;5.47;;;;;;;10.85;nan;-24120.03;5082725;28;20246;-73
2022/10/23 04:43:27;;;;;;;9.07;5.00;;;;;;;10.89;nan;-24121.28;5092336;28;20185;-74
2022/10/23 04:45:53;;;;;;;9.53;6.03;;;;;;;10.89;nan;-24121.28;5092630;28;20563;-76
2022/10/23 04:48:18;;;;;;;12.23;5.60;;;;;;;11.10;nan;-24127.06;5088247;28;20191;-77
2022/10/23 04:50:53;;;;;;;7.13;4.53;;;;;;;11.10;nan;-24127.06;5084007;28;20188;-75
2022/10/23 04:53:19;;;;;;;6.83;4.03;;;;;;;11.65;nan;-24142.28;5097175;28;20184;-76
2022/10/23 04:55:52;;;;;;;8.03;4.47;;;;;;;11.65;nan;-24142.28;5100277;28;20174;-72
2022/10/23 04:58:18;;;;;;;5.75;3.33;;;;;;;9.51;nan;-24082.59;5099256;28;20185;-72
2022/10/23 05:00:44;;;;;;;12.43;4.38;;;;;;;12.09;nan;-24154.69;5088196;28;20668;-73
2022/10/23 05:03:10;;;;;;;5.93;4.05;;;;;;;12.09;nan;-24154.69;5100544;28;20235;-73
2022/10/23 05:05:35;;;;;;;9.57;4.40;;;;;;;11.37;nan;-24134.69;5098943;28;20188;-72
2022/10/23 05:08:00;;;;;;;7.78;4.65;;;;;;;11.37;nan;-24134.69;5098122;28;20716;-76
2022/10/23 05:10:26;;;;;;;8.60;4.93;;;;;;;12.20;nan;-24157.78;5078056;28;20276;-73
2022/10/23 05:12:51;;;;;;;6.43;4.03;;;;;;;11.90;nan;-24149.34;5099646;28;20189;-74
2022/10/23 05:15:17;;;;;;;8.57;4.60;;;;;;;11.90;nan;-24149.34;5077275;28;20180;-75
2022/10/23 05:17:45;;;;;;;9.95;4.38;;;;;;;12.09;nan;-24154.69;5073917;28;20225;-76
2022/10/23 05:20:18;;;;;;;8.15;4.05;;;;;;;12.28;nan;-24160.03;5092763;28;20637;-76
2022/10/23 05:22:44;;;;;;;9.68;4.53;;;;;;;12.43;nan;-24163.97;5091886;28;20201;-76
2022/10/23 05:25:11;;;;;;;5.88;3.47;;;;;;;12.50;nan;-24165.94;5091986;28;20196;-75
2022/10/23 05:27:37;;;;;;;8.02;3.85;;;;;;;12.95;nan;-24178.47;5090813;28;20672;-77
2022/10/23 05:30:03;;;;;;;6.72;3.53;;;;;;;12.76;nan;-24173.25;5092178;28;20173;-76
2022/10/23 05:32:31;;;;;;;7.53;3.05;;;;;;;12.76;nan;-24173.25;5092471;28;20174;-76
2022/10/23 05:34:57;;;;;;;5.53;3.20;;;;;;;13.62;nan;-24197.28;5092345;28;20166;-76
2022/10/23 05:37:23;;;;;;;6.90;3.63;;;;;;;14.09;nan;-24210.34;5073965;28;20265;-77
2022/10/23 05:39:49;;;;;;;6.50;3.33;;;;;;;14.33;nan;-24216.94;5091758;28;20173;-76
2022/10/23 05:42:14;;;;;;;7.80;3.88;;;;;;;14.32;nan;-24216.50;5073678;28;20609;-74
2022/10/23 05:44:40;;;;;;;5.82;2.90;;;;;;;14.84;nan;-24231.09;5074334;28;20174;-74
2022/10/23 05:47:06;;;;;;;5.70;2.72;;;;;;;14.92;nan;-24233.34;5092039;28;20178;-74
2022/10/23 05:49:31;;;;;;;3.33;2.92;;;;;;;15.67;nan;-24254.06;5092113;28;20294;-78
2022/10/23 05:51:57;;;;;;;5.18;3.20;;;;;;;16.01;nan;-24263.44;5090647;28;20269;-78
2022/10/23 05:54:22;;;;;;;7.47;3.25;;;;;;;16.09;nan;-24265.56;5090546;28;20185;-75
2022/10/23 05:56:47;;;;;;;4.85;3.08;;;;;;;16.71;nan;-24282.75;5092083;28;20185;-76
2022/10/23 05:59:13;;;;;;;4.35;2.40;;;;;;;16.89;nan;-24287.63;5092859;28;20177;-78
2022/10/23 06:01:38;;;;;;;5.05;2.92;;;;;;;17.37;nan;-24301.03;5090079;28;20174;-74
2022/10/23 06:04:04;;;;;;;4.85;2.80;;;;;;;17.34;nan;-24300.06;5096565;28;20200;-75
2022/10/23 06:06:30;;;;;;;6.53;2.65;;;;;;;17.81;nan;-24313.19;5091576;28;20188;-77
2022/10/23 06:08:55;;;;;;;4.53;2.92;;;;;;;18.02;nan;-24318.91;5073859;28;20158;-76
2022/10/23 06:11:24;;;;;;;11.38;3.28;;;;;;;18.26;nan;-24325.59;5076192;28;20208;-78
2022/10/23 06:13:49;;;;;;;6.95;3.08;;;;;;;18.26;nan;-24325.59;5093708;28;20173;-77
2022/10/23 06:16:18;;;;;;;6.35;3.15;;;;;;;18.60;nan;-24334.91;5092319;28;20180;-77
2022/10/23 06:18:47;;;;;;;3.65;2.60;;;;;;;18.70;nan;-24337.56;5073235;28;20208;-74
2022/10/23 06:21:14;;;;;;;5.13;2.72;;;;;;;18.86;nan;-24342.03;5090159;28;20176;-67
2022/10/23 06:23:41;;;;;;;8.23;2.60;;;;;;;18.93;nan;-24344.13;5083574;28;20862;-66
2022/10/23 06:26:09;;;;;;;4.72;2.63;;;;;;;19.03;nan;-24346.63;5075488;28;20232;-68
2022/10/23 06:28:34;;;;;;;4.70;2.92;;;;;;;19.09;nan;-24348.28;5074873;28;20575;-67
2022/10/23 06:31:07;;;;;;;7.03;3.08;;;;;;;18.98;nan;-24345.38;5074139;28;20640;-67
2022/10/23 06:33:33;;;;;;;4.82;3.28;;;;;;;19.40;nan;-24357.06;5075964;28;20182;-66
2022/10/23 06:35:58;;;;;;;10.35;3.55;;;;;;;19.28;nan;-24353.72;5075480;28;20177;-69
2022/10/23 06:38:24;;;;;;;5.85;3.53;;;;;;;19.37;nan;-24356.22;5076940;28;20213;-68
2022/10/23 06:40:54;;;;;;;7.20;4.38;;;;;;;19.75;nan;-24366.50;5074056;28;20533;-67
2022/10/23 06:43:20;;;;;;;6.40;3.65;;;;;;;19.83;nan;-24368.72;5074193;28;20184;-68
2022/10/23 06:45:45;;;;;;;5.15;3.63;;;;;;;19.68;nan;-24364.56;5075651;28;20174;-68
2022/10/23 06:48:11;;;;;;;4.55;2.90;;;;;;;20.08;nan;-24375.69;5074119;28;20182;-66
2022/10/23 06:50:37;;;;;;;7.40;3.53;;;;;;;20.08;nan;-24375.69;5075855;28;20185;-67
2022/10/23 06:53:04;;;;;;;5.93;3.63;;;;;;;20.30;nan;-24381.66;5074379;28;20186;-67
2022/10/23 06:55:30;;;;;;;4.32;2.85;;;;;;;20.11;nan;-24376.50;5075310;28;20231;-69
2022/10/23 06:57:55;;;;;;;6.47;3.15;;;;;;;19.90;nan;-24370.69;5076219;28;20196;-73
2022/10/23 07:00:21;;;;;;;6.30;3.17;;;;;;;19.90;nan;-24370.69;5076496;28;20596;-68
2022/10/23 07:02:46;;;;;;;5.18;3.45;;;;;;;20.34;nan;-24382.78;5076329;28;20225;-67
2022/10/23 07:05:12;;;;;;;5.95;3.30;;;;;;;20.64;nan;-24390.97;5080417;28;20264;-67
2022/10/23 07:07:37;;;;;;;6.03;3.22;;;;;;;20.43;nan;-24385.28;5079034;28;20219;-67
2022/10/23 07:10:03;;;;;;;7.75;3.20;;;;;;;20.67;nan;-24391.94;5076737;28;20232;-67
2022/10/23 07:12:28;;;;;;;5.85;2.90;;;;;;;20.59;nan;-24389.56;5077454;28;20688;-68
2022/10/23 07:14:55;;;;;;;6.85;3.58;;;;;;;20.90;nan;-24398.16;5077088;28;20181;-68
2022/10/23 07:17:20;;;;;;;6.15;3.45;;;;;;;20.70;nan;-24392.63;5079448;28;20879;-68
2022/10/23 07:19:46;;;;;;;5.85;3.75;;;;;;;20.70;nan;-24392.63;5078795;28;20190;-66
2022/10/23 07:22:12;;;;;;;10.05;4.53;;;;;;;21.20;nan;-24406.22;5079095;28;20166;-67
2022/10/23 07:24:39;;;;;;;7.63;4.10;;;;;;;21.18;nan;-24405.66;5077896;28;20221;-67
2022/10/23 07:27:05;;;;;;;7.30;3.97;;;;;;;21.18;nan;-24405.66;5078504;28;20227;-67
2022/10/23 07:29:31;;;;;;;14.10;4.70;;;;;;;21.39;nan;-24411.50;5078456;28;20194;-68
2022/10/23 07:31:57;;;;;;;9.38;3.75;;;;;;;21.54;nan;-24415.66;5079815;28;20185;-67
2022/10/23 07:34:23;;;;;;;8.98;4.80;;;;;;;21.62;nan;-24417.84;5080246;28;20177;-66
2022/10/23 07:36:48;;;;;;;10.55;4.78;;;;;;;21.47;nan;-24413.69;5079898;28;20174;-68
2022/10/23 07:39:14;;;;;;;13.50;5.00;;;;;;;21.69;nan;-24419.66;5079492;28;20200;-67
2022/10/23 07:41:40;;;;;;;5.82;3.10;;;;;;;22.10;nan;-24430.88;5078342;28;20178;-67
2022/10/23 07:44:05;;;;;;;8.10;3.85;;;;;;;22.02;nan;-24428.94;5077063;28;20186;-69
2022/10/23 07:46:31;;;;;;;7.70;3.75;;;;;;;22.18;nan;-24433.09;5077164;28;20177;-68
2022/10/23 07:48:56;;;;;;;7.70;3.63;;;;;;;22.28;nan;-24435.88;5078282;28;20667;-65
2022/10/23 07:51:21;;;;;;;6.40;3.72;;;;;;;22.35;nan;-24437.94;5077937;28;20612;-67
2022/10/23 07:53:47;;;;;;;6.72;3.50;;;;;;;22.49;nan;-24441.66;5079736;28;20853;-68
2022/10/23 07:56:21;;;;;;;7.78;4.10;;;;;;;22.48;nan;-24441.53;5066185;28;20733;-67
2022/10/23 07:58:46;;;;;;;11.18;4.60;;;;;;;22.54;nan;-24443.06;5076326;28;20582;-68
2022/10/23 08:01:16;;;;;;;6.05;3.45;;;;;;;22.58;nan;-24444.16;5078577;28;20264;-67
2022/10/23 08:03:41;;;;;;;8.25;3.35;;;;;;;22.55;nan;-24443.34;5078960;28;20180;-67
2022/10/23 08:06:07;;;;;;;8.30;3.83;;;;;;;22.60;nan;-24444.72;5078799;28;20182;-66
2022/10/23 08:08:32;;;;;;;8.27;3.33;;;;;;;22.60;nan;-24442.09;5078959;28;20189;-68
2022/10/23 08:10:58;;;;;;;8.98;3.55;;;;;;;22.74;nan;-24448.59;5078744;28;20193;-68
2022/10/23 08:13:23;;;;;;;7.95;3.20;;;;;;;22.51;nan;-24442.22;5078001;28;20194;-67
2022/10/23 08:15:50;;;;;;;5.78;2.72;;;;;;;22.60;nan;-24444.72;5078446;28;20189;-68
2022/10/23 08:18:16;;;;;;;9.27;3.70;;;;;;;22.56;nan;-24443.59;5078403;28;20653;-66
2022/10/23 08:20:42;;;;;;;6.30;2.90;;;;;;;;;;5079432;28;20260;-67
2022/10/23 08:23:08;;;;;;;9.50;2.78;;;;;;;22.66;nan;-24446.38;5079262;28;20222;-66
2022/10/23 08:25:33;;;;;;;6.78;2.80;;;;;;;22.44;nan;-24440.28;5076532;28;20279;-70
2022/10/23 08:27:59;;;;;;;7.22;2.92;;;;;;;22.88;nan;-24452.47;5078522;28;20664;-68
2022/10/23 08:30:26;;;;;;;5.13;3.08;;;;;;;22.80;nan;-24450.25;5078011;28;20250;-67
2022/10/23 08:32:51;;;;;;;6.93;3.00;;;;;;;22.79;nan;-24449.97;5077995;28;20181;-67
2022/10/23 08:35:17;;;;;;;3.38;2.13;;;;;;;22.85;nan;-24451.63;5079344;28;20261;-69
2022/10/23 08:37:42;;;;;;;5.30;3.03;;;;;;;22.74;nan;-24448.59;5077883;28;20613;-67
2022/10/23 08:40:14;;;;;;;5.18;1.95;;;;;;;23.15;nan;-24459.78;5079051;28;20169;-66
2022/10/23 08:42:41;;;;;;;2.70;1.65;;;;;;;22.83;nan;-24451.09;5079567;28;20180;-67
2022/10/23 08:45:20;;;;;;;4.00;2.03;;;;;;;23.07;nan;-24457.56;5077670;28;20181;-69
2022/10/23 08:47:54;;;;;;;7.63;2.78;;;;;;;23.20;nan;-24461.03;5078658;28;20177;-68
2022/10/23 08:50:25;;;;;;;4.82;2.58;;;;;;;23.33;nan;-24464.63;5077903;28;20314;-67
2022/10/23 08:52:59;;;;;;;4.07;1.95;;;;;;;23.39;nan;-24466.13;5076432;28;20215;-67
2022/10/23 08:55:29;;;;;;;4.80;2.30;;;;;;;23.27;nan;-24463.09;5078219;28;20178;-67
2022/10/23 08:58:14;;;;;;;3.17;2.08;;;;;;;23.35;nan;-24465.19;5077586;28;20193;-69
2022/10/23 09:00:48;;;;;;;5.90;2.35;;;;;;;23.31;nan;-24464.06;5076218;28;20273;-68
2022/10/23 09:03:13;;;;;;;2.97;1.95;;;;;;;23.63;nan;-24472.78;5078376;28;20243;-67
2022/10/23 09:06:10;;;;;;;7.00;1.90;;;;;;;23.66;nan;-24473.75;5076986;28;21180;-67
2022/10/23 09:09:07;;;;;;;8.43;2.38;;;;;;;23.47;nan;-24468.34;5077015;28;20563;-66
2022/10/23 09:12:16;;;;;;;2.40;1.63;;;;;;;23.37;nan;-24465.72;5078562;28;20181;-69
2022/10/23 09:15:19;;;;;;;10.43;2.08;;;;;;;23.59;nan;-24471.81;5065977;28;20193;-66
2022/10/23 09:17:46;;;;;;;5.03;1.70;;;;;;;23.40;nan;-24466.41;5077386;28;20236;-67
2022/10/23 09:20:33;;;;;;;6.13;1.90;;;;;;;23.56;nan;-24470.97;5078461;28;20686;-68
2022/10/23 09:23:15;;;;;;;7.65;1.80;;;;;;;23.80;nan;-24477.31;5078338;28;20696;-66
2022/10/23 09:25:42;;;;;;;2.08;1.58;;;;;;;23.24;nan;-24462.28;5077595;28;20196;-68
2022/10/23 09:28:31;;;;;;;2.20;1.40;;;;;;;23.93;nan;-24481.06;5077544;28;20186;-68
2022/10/23 09:31:07;;;;;;;7.00;3.60;;;;;;;23.85;nan;-24478.84;5066869;28;20202;-67
2022/10/23 09:33:35;;;;;;;11.77;5.20;;;;;;;23.99;nan;-24482.72;5077126;28;20272;-69
2022/10/23 09:36:12;;;;;;;5.72;3.35;;;;;;;24.20;nan;-24488.50;5065071;28;20534;-69
2022/10/23 09:38:43;;;;;;;10.32;5.35;;;;;;;24.37;nan;-24492.91;5076554;28;20280;-68
2022/10/23 09:41:17;;;;;;;8.70;3.65;;;;;;;24.36;nan;-24492.63;5077040;28;20196;-69
2022/10/23 09:43:42;;;;;;;5.45;2.85;;;;;;;24.12;nan;-24486.16;5076542;28;20193;-67
2022/10/23 09:46:09;;;;;;;5.30;2.97;;;;;;;24.36;nan;-24492.63;5076693;28;20221;-67
2022/10/23 09:48:35;;;;;;;3.78;2.45;;;;;;;24.16;nan;-24487.25;5075705;28;20177;-69
2022/10/23 09:51:16;;;;;;;6.10;2.72;;;;;;;24.36;nan;-24492.78;5077701;28;20664;-67
2022/10/23 09:53:54;;;;;;;5.28;2.40;;;;;;;24.14;nan;-24486.84;5077566;28;20185;-68
2022/10/23 09:56:24;;;;;;;3.47;2.17;;;;;;;24.20;nan;-24488.50;5077198;28;20254;-67
2022/10/23 09:58:57;;;;;;;6.72;2.95;;;;;;;24.26;nan;-24490.03;5076671;28;20207;-69
2022/10/23 10:01:37;;;;;;;4.38;2.63;;;;;;;24.42;nan;-24494.44;5076292;28;20234;-68
2022/10/23 10:04:03;;;;;;;3.05;1.98;;;;;;;24.17;nan;-24487.69;5075848;28;20180;-69
2022/10/23 10:06:31;;;;;;;4.10;2.90;;;;;;;24.36;nan;-24492.78;5076946;28;20185;-67
2022/10/23 10:09:06;;;;;;;5.32;2.65;;;;;;;24.50;nan;-24496.63;5076951;28;20675;-67
2022/10/23 10:11:53;;;;;;;3.83;2.22;;;;;;;24.36;nan;-24492.78;5076842;28;20185;-67
2022/10/23 10:14:40;;;;;;;5.28;3.22;;;;;;;24.71;nan;-24502.16;5077267;28;20193;-68
2022/10/23 10:17:33;;;;;;;4.15;2.47;;;;;;;24.38;nan;-24493.31;5076124;28;20664;-69
2022/10/23 10:20:20;;;;;;;3.28;2.20;;;;;;;24.74;nan;-24502.97;5075895;28;20631;-67
2022/10/23 10:23:02;;;;;;;4.07;2.65;;;;;;;24.76;nan;-24503.53;5075974;28;20663;-68
2022/10/23 10:25:49;;;;;;;11.73;6.28;;;;;;;24.72;nan;-24502.56;5075812;28;20182;-67
2022/10/23 10:28:24;;;;;;;16.95;7.25;;;;;;;24.81;nan;-24505.03;5076073;28;20178;-67
2022/10/23 10:31:01;;;;;;;10.40;5.60;;;;;;;24.89;nan;-24507.09;5077389;28;20314;-69
2022/10/23 10:34:02;;;;;;;27.75;11.88;;;;;;;24.91;nan;-24507.66;5076439;28;20180;-66
2022/10/23 10:36:36;;;;;;;11.25;4.80;;;;;;;25.08;nan;-24512.47;5062957;28;20201;-69
2022/10/23 10:39:10;;;;;;;11.85;4.70;;;;;;;25.07;nan;-24512.19;5078388;28;20338;-67
2022/10/23 10:41:53;;;;;;;9.95;5.55;;;;;;;25.16;nan;-24514.41;5080635;28;20178;-67
2022/10/23 10:44:43;;;;;;;8.35;4.32;;;;;;;25.05;nan;-24511.66;5080400;28;20186;-69
2022/10/23 10:47:23;;;;;;;10.63;3.67;;;;;;;24.99;nan;-24510.00;5080563;28;20181;-68
2022/10/23 10:50:04;;;;;;;7.55;4.28;;;;;;;24.92;nan;-24508.06;5080112;28;20217;-66
2022/10/23 10:52:48;;;;;;;15.32;8.43;;;;;;;25.00;nan;-24510.13;5080267;28;20185;-66
2022/10/23 10:55:24;;;;;;;14.43;5.50;;;;;;;24.98;nan;-24509.72;5079356;28;20174;-68
2022/10/23 10:57:54;;;;;;;10.15;5.07;;;;;;;24.87;nan;-24506.56;5080523;28;20656;-67
2022/10/23 11:00:22;;;;;;;8.02;3.55;;;;;;;25.17;nan;-24514.81;5080270;28;20177;-69
2022/10/23 11:03:08;;;;;;;4.88;2.78;;;;;;;24.94;nan;-24508.63;5080601;28;20177;-69
2022/10/23 11:05:39;;;;;;;5.03;3.22;;;;;;;24.84;nan;-24505.72;5081305;28;20189;-68
2022/10/23 11:08:23;;;;;;;10.35;4.65;;;;;;;25.07;nan;-24512.06;5080514;28;20186;-69
2022/10/23 11:10:54;;;;;;;4.93;3.05;;;;;;;25.03;nan;-24510.97;5079948;28;20227;-68
2022/10/23 11:13:32;;;;;;;4.25;2.50;;;;;;;25.26;nan;-24517.28;5079815;28;20648;-67
2022/10/23 11:16:03;;;;;;;3.88;1.98;;;;;;;25.45;nan;-24522.53;5079572;28;20248;-68
2022/10/23 11:18:31;;;;;;;4.47;2.35;;;;;;;25.43;nan;-24521.97;5081103;28;20201;-67
2022/10/23 11:21:21;;;;;;;2.88;2.20;;;;;;;25.39;nan;-24520.88;5080173;28;20562;-68
2022/10/23 11:24:05;;;;;;;2.40;1.80;;;;;;;25.18;nan;-24515.09;5079593;28;20616;-68
2022/10/23 11:26:30;;;;;;;3.08;2.05;;;;;;;25.31;nan;-24518.66;5079949;28;20190;-69
2022/10/23 11:28:56;;;;;;;2.75;2.03;;;;;;;25.44;nan;-24522.25;5080084;28;20625;-68
2022/10/23 11:31:40;;;;;;;3.35;2.30;;;;;;;25.57;nan;-24525.56;5080403;28;20749;-69
2022/10/23 11:34:07;;;;;;;2.80;1.77;;;;;;;25.51;nan;-24524.16;5078842;28;20775;-68
2022/10/23 11:36:55;;;;;;;4.38;2.28;;;;;;;25.41;nan;-24521.41;5079809;28;20186;-68
2022/10/23 11:39:26;;;;;;;5.63;2.22;;;;;;;25.50;nan;-24523.91;5079497;28;20288;-66
2022/10/23 11:41:55;;;;;;;1.90;1.60;;;;;;;25.48;nan;-24523.22;5079747;28;21220;-68
2022/10/23 11:44:41;;;;;;;8.93;2.42;;;;;;;25.32;nan;-24518.94;5079135;28;20209;-68
2022/10/23 11:47:39;;;;;;;4.53;2.53;;;;;;;25.38;nan;-24520.59;5078735;28;20189;-67
2022/10/23 11:50:07;;;;;;;3.50;1.98;;;;;;;25.47;nan;-24523.06;5079230;28;20177;-68
2022/10/23 11:53:06;;;;;;;2.50;1.85;;;;;;;25.44;nan;-24522.25;5079657;28;20178;-67
2022/10/23 11:55:32;;;;;;;3.47;2.05;;;;;;;25.23;nan;-24516.47;5079088;28;20173;-67
2022/10/23 11:58:06;;;;;;;2.05;1.70;;;;;;;25.53;nan;-24524.59;5079679;28;20804;-68
2022/10/23 12:00:37;;;;;;;4.03;1.98;;;;;;;25.72;nan;-24529.69;5078690;28;20188;-67